Time;durP1;ratioP1;P1;durP2;ratioP2;P2;SDS_P1;SDS_P2;PMS_P1;PMS_P2;Temp;Humidity;BMP_temperature;BMP_pressure;BME280_temperature;BME280_humidity;BME280_pressure;Samples;Min_cycle;Max_cycle;Signal;HPM_P1;HPM_P2
2022/07/10 00:02:15;;;;;;;2.88;1.63;;;;;;;17.84;51.37;96596.97;10335768;28;97011;-73
2022/07/10 00:07:18;;;;;;;3.93;2.13;;;;;;;17.80;51.21;96596.47;10334879;28;98196;-73
2022/07/10 00:12:23;;;;;;;3.20;2.20;;;;;;;17.65;52.34;96593.88;10334823;28;97020;-73
2022/07/10 00:17:25;;;;;;;2.35;1.80;;;;;;;17.54;52.18;96594.31;10338241;28;96881;-74
2022/07/10 00:22:28;;;;;;;2.72;1.85;;;;;;;17.50;52.25;96590.41;10333277;28;96914;-73
2022/07/10 00:27:33;;;;;;;2.88;1.63;;;;;;;17.47;52.56;96574.94;10333650;28;96872;-73
2022/07/10 00:32:36;;;;;;;2.70;1.73;;;;;;;17.29;52.29;96578.75;10326250;28;100043;-74
2022/07/10 00:37:39;;;;;;;2.72;2.08;;;;;;;17.12;53.62;96572.81;10329750;28;98613;-74
2022/07/10 00:42:43;;;;;;;3.78;1.60;;;;;;;17.09;53.95;96578.47;10329337;28;96898;-73
2022/07/10 00:47:46;;;;;;;2.20;1.75;;;;;;;16.96;53.71;96568.53;10329930;28;97798;-73
2022/07/10 00:52:49;;;;;;;3.38;2.13;;;;;;;16.88;53.96;96565.13;10327403;28;96827;-73
2022/07/10 00:57:53;;;;;;;2.45;1.90;;;;;;;16.86;54.20;96557.41;10335585;28;97262;-73
2022/07/10 01:02:56;;;;;;;3.05;1.83;;;;;;;16.69;54.11;96555.88;10336770;28;97054;-73
2022/07/10 01:07:59;;;;;;;5.03;1.67;;;;;;;16.57;54.84;96558.97;10338265;28;97282;-73
2022/07/10 01:13:03;;;;;;;3.22;1.48;;;;;;;16.46;55.05;96548.81;10337292;28;98445;-74
2022/07/10 01:18:07;;;;;;;3.05;1.50;;;;;;;16.51;55.25;96540.38;10336278;28;96781;-74
2022/07/10 01:23:11;;;;;;;2.05;1.33;;;;;;;16.53;55.65;96541.81;10328559;28;99962;-74
2022/07/10 01:28:14;;;;;;;3.55;1.80;;;;;;;16.43;55.73;96542.09;10332765;28;97684;-73
2022/07/10 01:33:17;;;;;;;4.00;1.38;;;;;;;16.30;55.49;96535.78;10334708;28;97104;-74
2022/07/10 01:38:21;;;;;;;2.22;1.40;;;;;;;16.04;56.11;96532.47;10337766;28;96904;-73
2022/07/10 01:43:24;;;;;;;2.80;1.90;;;;;;;15.95;56.49;96537.97;10337495;28;97068;-73
2022/07/10 01:48:27;;;;;;;1.92;1.45;;;;;;;15.88;56.95;96535.22;10334086;28;98749;-73
2022/07/10 01:53:31;;;;;;;3.55;1.60;;;;;;;15.78;57.25;96534.63;10330008;28;97216;-73
2022/07/10 01:58:35;;;;;;;3.10;1.75;;;;;;;15.70;57.83;96535.47;10335267;28;97675;-74
2022/07/10 02:09:00;;;;;;;2.78;1.52;;;;;;;15.23;60.38;96545.00;10325905;28;96766;-73
2022/07/10 02:14:03;;;;;;;2.37;1.83;;;;;;;15.15;60.96;96542.41;10334132;28;96834;-73
2022/07/10 02:19:06;;;;;;;2.40;1.52;;;;;;;15.07;61.10;96539.78;10336097;28;98210;-74
2022/07/10 02:24:10;;;;;;;3.13;2.00;;;;;;;15.09;61.08;96538.63;10333071;28;98611;-73
2022/07/10 02:29:13;;;;;;;2.23;1.70;;;;;;;15.17;61.02;96539.63;10337710;28;97723;-73
2022/07/10 02:34:16;;;;;;;2.05;1.63;;;;;;;15.16;60.63;96538.78;10345963;28;96832;-73
2022/07/10 02:39:23;;;;;;;3.55;1.92;;;;;;;15.06;62.12;96538.97;10334817;28;98073;-73
2022/07/10 02:44:26;;;;;;;2.85;1.90;;;;;;;14.89;61.16;96542.63;10335304;28;97220;-74
2022/07/10 02:49:29;;;;;;;3.70;1.90;;;;;;;14.82;61.98;96537.22;10346036;28;97446;-73
2022/07/10 02:54:33;;;;;;;3.30;1.95;;;;;;;14.64;63.59;96539.19;10337156;28;97153;-73
2022/07/10 02:59:36;;;;;;;2.47;1.90;;;;;;;14.58;63.54;96535.44;10336766;28;96961;-73
2022/07/10 03:04:39;;;;;;;3.55;1.98;;;;;;;14.61;63.47;96524.59;10336673;28;96779;-73
2022/07/10 03:09:44;;;;;;;3.72;1.95;;;;;;;14.62;63.39;96535.94;10337275;28;97072;-73
2022/07/10 03:14:46;;;;;;;9.17;6.50;;;;;;;14.63;63.21;96517.34;10338167;28;97822;-76
2022/07/10 03:19:49;;;;;;;8.05;7.15;;;;;;;14.62;63.97;96528.84;10335264;28;97254;-76
2022/07/10 03:24:54;;;;;;;4.55;3.63;;;;;;;14.56;63.20;96522.44;10334847;28;97277;-76
2022/07/10 03:29:56;;;;;;;3.60;2.37;;;;;;;14.47;64.08;96527.88;10334269;28;96873;-71
2022/07/10 03:35:00;;;;;;;2.30;1.90;;;;;;;14.44;64.74;96531.66;10335403;28;97281;-71
2022/07/10 03:40:05;;;;;;;2.70;1.80;;;;;;;14.31;64.58;96533.91;10330880;28;97541;-71
2022/07/10 03:45:09;;;;;;;4.50;2.30;;;;;;;14.18;63.83;96523.91;10331452;28;99768;-71
2022/07/10 03:50:12;;;;;;;3.50;2.35;;;;;;;14.18;65.38;96524.72;10332066;28;96903;-72
2022/07/10 03:55:16;;;;;;;3.60;2.10;;;;;;;13.90;66.72;96518.13;10330054;28;99416;-71
2022/07/10 04:00:19;;;;;;;4.18;2.03;;;;;;;13.85;65.77;96518.59;10330137;28;96817;-71
2022/07/10 04:05:22;;;;;;;4.10;2.15;;;;;;;13.82;66.78;96521.53;10333591;28;96826;-71
2022/07/10 04:10:28;;;;;;;3.90;2.28;;;;;;;13.89;66.64;96519.91;10330803;28;96744;-72
2022/07/10 04:15:31;;;;;;;2.95;2.10;;;;;;;13.91;66.89;96523.19;10329368;28;97641;-71
2022/07/10 04:20:34;;;;;;;2.88;2.00;;;;;;;14.00;66.45;96521.41;10329957;28;96917;-71
2022/07/10 04:25:38;;;;;;;2.35;1.80;;;;;;;14.14;66.57;96518.16;10330649;28;96859;-71
2022/07/10 04:30:41;;;;;;;3.00;2.20;;;;;;;14.22;66.26;96519.97;10331280;28;96857;-71
2022/07/10 04:35:44;;;;;;;3.53;2.15;;;;;;;14.25;66.24;96519.63;10328778;28;96862;-71
2022/07/10 04:40:49;;;;;;;2.80;2.10;;;;;;;14.30;66.42;96512.09;10337767;28;97577;-71
2022/07/10 04:45:52;;;;;;;4.03;2.10;;;;;;;14.40;66.30;96511.94;10331472;28;97961;-71
2022/07/10 04:50:55;;;;;;;4.22;1.90;;;;;;;14.51;65.58;96523.94;10336884;28;96909;-71
2022/07/10 04:55:59;;;;;;;3.13;2.28;;;;;;;14.56;65.33;96527.72;10336054;28;97999;-71
2022/07/10 05:01:03;;;;;;;3.90;2.70;;;;;;;14.80;65.94;96517.31;10323660;28;96784;-71
2022/07/10 05:06:06;;;;;;;4.85;2.72;;;;;;;14.98;65.47;96523.22;10336937;28;97418;-70
2022/07/10 05:11:10;;;;;;;4.53;2.90;;;;;;;15.18;65.69;96520.19;10337205;28;97274;-71
2022/07/10 05:16:13;;;;;;;3.45;2.08;;;;;;;15.36;64.58;96520.78;10335023;28;97776;-71
2022/07/10 05:21:22;;;;;;;3.55;2.40;;;;;;;15.44;64.93;96531.28;10337259;28;96789;-71
2022/07/10 05:26:26;;;;;;;4.00;2.45;;;;;;;15.62;64.62;96527.63;10334314;28;98658;-71
2022/07/10 05:31:30;;;;;;;3.90;2.55;;;;;;;15.83;64.19;96519.91;10335412;28;96999;-71
2022/07/10 05:36:33;;;;;;;4.50;2.17;;;;;;;16.09;64.67;96526.69;10335474;28;99292;-71
2022/07/10 05:41:37;;;;;;;4.60;2.50;;;;;;;16.33;64.50;96525.69;10332548;28;97311;-71
2022/07/10 05:46:40;;;;;;;2.95;2.03;;;;;;;16.60;64.26;96521.66;10333273;28;97646;-71
2022/07/10 05:51:43;;;;;;;4.05;2.08;;;;;;;16.85;63.21;96524.13;10333511;28;97119;-71
2022/07/10 05:56:48;;;;;;;2.63;2.20;;;;;;;17.00;61.90;96526.75;10332510;28;98877;-71
2022/07/10 06:01:51;;;;;;;2.90;1.83;;;;;;;17.07;61.85;96526.84;10334323;28;96784;-71
2022/07/10 06:06:54;;;;;;;3.50;1.85;;;;;;;17.17;60.62;96533.50;10334978;28;97111;-71
2022/07/10 06:11:58;;;;;;;4.82;2.00;;;;;;;17.25;60.36;96534.41;10332112;28;98784;-71
2022/07/10 06:17:01;;;;;;;3.38;2.30;;;;;;;17.37;60.14;96531.13;10334712;28;97745;-71
2022/07/10 06:27:27;;;;;;;3.75;1.88;;;;;;;17.70;59.77;96522.81;10333156;28;98426;-71
2022/07/10 06:32:30;;;;;;;2.10;1.75;;;;;;;17.85;59.25;96511.41;10327502;28;96941;-71
2022/07/10 06:37:32;;;;;;;3.47;2.03;;;;;;;18.01;58.75;96518.28;10334305;28;97375;-71
2022/07/10 06:42:37;;;;;;;2.55;1.80;;;;;;;18.15;58.39;96511.31;10334929;28;98398;-71
2022/07/10 06:47:58;;;;;;;1.77;1.60;;;;;;;18.26;58.71;96514.25;10332682;28;98857;-71
2022/07/10 06:53:02;;;;;;;4.03;2.08;;;;;;;18.44;58.04;96513.81;10333359;28;96718;-71
2022/07/10 06:58:07;;;;;;;4.72;1.85;;;;;;;18.53;57.69;96511.03;10334739;28;98204;-71
2022/07/10 07:03:10;;;;;;;2.35;1.60;;;;;;;18.67;57.44;96507.47;10325818;28;98209;-71
2022/07/10 07:08:13;;;;;;;3.47;2.13;;;;;;;18.90;57.64;96506.44;10334162;28;97885;-71
2022/07/10 07:13:18;;;;;;;3.80;1.77;;;;;;;19.04;57.08;96497.59;10333180;28;97620;-71
2022/07/10 07:18:22;;;;;;;;;;;;;;;19.11;57.00;96509.03;10330733;28;98778;-71
2022/07/10 07:23:25;;;;;;;3.35;1.92;;;;;;;19.29;57.14;96502.41;10332680;28;97110;-71
2022/07/10 07:28:29;;;;;;;2.65;1.80;;;;;;;19.48;56.63;96491.09;10330859;28;98577;-71
2022/07/10 07:33:32;;;;;;;4.50;1.88;;;;;;;19.60;55.31;96497.44;10333641;28;98775;-71
2022/07/10 07:38:35;;;;;;;3.10;1.50;;;;;;;19.68;54.90;96498.28;10333062;28;99046;-71
2022/07/10 07:43:40;;;;;;;2.72;1.70;;;;;;;19.88;54.61;96493.88;10334461;28;96884;-74
2022/07/10 07:48:42;;;;;;;2.83;1.63;;;;;;;19.98;54.85;96489.03;10331249;28;98571;-74
2022/07/10 07:53:45;;;;;;;5.57;1.65;;;;;;;20.11;54.92;96482.09;10335847;28;96802;-74
2022/07/10 07:58:50;;;;;;;2.25;1.73;;;;;;;20.43;54.62;96485.00;10335871;28;97028;-74
2022/07/10 08:03:53;;;;;;;3.50;1.80;;;;;;;20.52;53.48;96478.47;10335465;28;96925;-74
2022/07/10 08:09:10;;;;;;;3.95;1.67;;;;;;;20.60;52.88;96475.63;10340135;28;97550;-74
2022/07/10 08:14:15;;;;;;;2.95;1.60;;;;;;;20.69;52.44;96469.06;10339948;28;98248;-74
2022/07/10 08:19:17;;;;;;;;;;;;;;;20.99;52.76;96465.16;10338951;28;98956;-74
2022/07/10 08:24:20;;;;;;;2.35;1.60;;;;;;;21.06;51.99;96471.28;10340238;28;97822;-74
2022/07/10 08:29:24;;;;;;;2.83;1.80;;;;;;;21.17;51.85;96475.94;10331315;28;98009;-74
2022/07/10 08:34:28;;;;;;;2.38;1.40;;;;;;;21.29;50.70;96465.47;10337656;28;97355;-74
2022/07/10 08:39:31;;;;;;;3.60;1.50;;;;;;;21.48;49.97;96459.31;10337763;28;97389;-74
2022/07/10 08:44:36;;;;;;;2.58;1.48;;;;;;;21.65;49.39;96461.50;10338092;28;97201;-74
2022/07/10 08:49:41;;;;;;;3.10;1.42;;;;;;;21.92;48.78;96456.00;10345832;28;97633;-74
2022/07/10 08:54:44;;;;;;;2.05;1.27;;;;;;;22.01;47.75;96452.09;10331422;28;97228;-74
2022/07/10 08:59:48;;;;;;;1.45;1.10;;;;;;;22.04;46.69;96446.34;10334598;28;97017;-74
2022/07/10 09:04:52;;;;;;;;;;;;;;;22.18;47.24;96455.00;10338109;28;96807;-74
2022/07/10 09:09:57;;;;;;;2.75;1.27;;;;;;;22.29;45.98;96451.69;10340415;28;97907;-74
2022/07/10 09:15:17;;;;;;;2.55;1.50;;;;;;;22.45;45.67;96450.31;10339653;28;96841;-75
2022/07/10 09:20:32;;;;;;;2.05;1.15;;;;;;;22.62;45.03;96450.63;10332265;28;97053;-75
2022/07/10 09:25:35;;;;;;;2.38;1.20;;;;;;;22.71;45.20;96449.28;10334405;28;96846;-76
2022/07/10 09:30:41;;;;;;;2.92;1.58;;;;;;;22.98;44.86;96449.84;10335722;28;96838;-74
2022/07/10 09:36:06;;;;;;;1.90;1.15;;;;;;;23.09;44.08;96440.31;10339606;28;96880;-75
2022/07/10 09:41:12;;;;;;;3.20;1.40;;;;;;;23.20;44.10;96446.72;10338271;28;99096;-75
2022/07/10 09:46:18;;;;;;;2.13;1.20;;;;;;;23.29;43.70;96455.28;10334522;28;97163;-74
2022/07/10 09:51:21;;;;;;;2.90;1.35;;;;;;;23.30;44.00;96440.91;10335743;28;97155;-74
2022/07/10 09:56:26;;;;;;;2.17;1.20;;;;;;;23.32;42.74;96444.97;10339298;28;96745;-74
2022/07/10 10:01:30;;;;;;;2.85;1.13;;;;;;;23.42;41.91;96441.00;10339727;28;96748;-74
2022/07/10 10:06:34;;;;;;;2.63;1.20;;;;;;;23.62;41.72;96433.56;10338973;28;96856;-74
2022/07/10 10:11:38;;;;;;;1.95;1.25;;;;;;;23.73;41.20;96430.09;10339153;28;96768;-74
2022/07/10 10:16:45;;;;;;;;;;;;;;;23.71;41.78;96432.19;10338570;28;96970;-74
2022/07/10 10:21:49;;;;;;;2.53;1.52;;;;;;;23.83;41.71;96426.06;10332737;28;98708;-74
2022/07/10 10:26:53;;;;;;;3.08;1.23;;;;;;;24.00;41.46;96427.06;10336699;28;97343;-75
2022/07/10 10:31:57;;;;;;;3.45;1.15;;;;;;;24.18;41.07;96417.41;10337185;28;97910;-74
2022/07/10 10:37:01;;;;;;;2.83;1.30;;;;;;;24.34;40.63;96424.72;10335050;28;98976;-74
2022/07/10 10:42:06;;;;;;;3.03;1.27;;;;;;;24.45;40.37;96410.59;10337220;28;96743;-74
2022/07/10 10:47:10;;;;;;;2.40;1.23;;;;;;;24.76;40.07;96410.44;10337013;28;96747;-74
2022/07/10 10:52:15;;;;;;;2.47;1.17;;;;;;;24.95;39.13;96408.47;10337968;28;98013;-74
2022/07/10 10:57:19;;;;;;;1.98;1.42;;;;;;;25.11;39.00;96413.09;10333846;28;98635;-74
2022/07/10 11:02:26;;;;;;;2.37;1.10;;;;;;;25.21;38.70;96402.59;10336827;28;96792;-74
2022/07/10 11:07:54;;;;;;;1.98;1.52;;;;;;;25.24;38.63;96394.13;10336486;28;96773;-74
2022/07/10 11:12:59;;;;;;;3.70;1.50;;;;;;;25.36;38.36;96394.09;10327263;28;98900;-74
2022/07/10 11:18:06;;;;;;;3.55;1.90;;;;;;;25.48;38.49;96391.38;10336667;28;96909;-74
2022/07/10 11:23:40;;;;;;;2.95;1.50;;;;;;;25.51;37.47;96382.88;10336342;28;96937;-74
2022/07/10 11:28:53;;;;;;;2.77;1.37;;;;;;;25.71;37.35;96389.69;10338354;28;96908;-75
2022/07/10 11:33:58;;;;;;;2.22;1.42;;;;;;;25.60;37.62;96378.78;10336093;28;97245;-74
2022/07/10 11:39:03;;;;;;;1.40;1.20;;;;;;;25.47;37.62;96376.38;10335441;28;98036;-74
2022/07/10 11:44:05;;;;;;;2.90;1.20;;;;;;;25.70;37.57;96374.66;10336330;28;96713;-74
2022/07/10 11:49:10;;;;;;;2.78;1.30;;;;;;;25.96;37.25;96370.56;10335506;28;98546;-74
2022/07/10 11:54:15;;;;;;;2.15;1.38;;;;;;;26.16;36.55;96364.75;10344266;28;96867;-74
2022/07/10 11:59:24;;;;;;;2.88;1.40;;;;;;;26.32;36.20;96363.94;10335500;28;97143;-74
2022/07/10 12:04:31;;;;;;;1.73;1.35;;;;;;;26.54;34.71;96365.88;10335612;28;96802;-74
2022/07/10 12:09:38;;;;;;;3.00;1.38;;;;;;;26.74;34.31;96362.66;10334985;28;96852;-74
2022/07/10 12:14:41;;;;;;;2.55;1.10;;;;;;;26.79;34.13;96360.03;10335122;28;96809;-74
2022/07/10 12:19:46;;;;;;;3.20;1.03;;;;;;;26.83;34.47;96355.00;10335167;28;96843;-74
2022/07/10 12:24:50;;;;;;;1.75;1.20;;;;;;;27.04;33.56;96356.91;10335174;28;97642;-74
2022/07/10 12:30:01;;;;;;;1.05;0.90;;;;;;;27.22;33.07;96349.63;10334525;28;97194;-74
2022/07/10 12:35:12;;;;;;;1.35;0.98;;;;;;;27.38;32.55;96340.66;10335146;28;96809;-75
2022/07/10 12:40:33;;;;;;;1.27;1.00;;;;;;;27.42;33.07;96347.16;10334347;28;97157;-74
2022/07/10 12:45:36;;;;;;;1.90;1.10;;;;;;;27.49;32.47;96339.72;10334630;28;97336;-75
2022/07/10 12:50:40;;;;;;;1.30;1.00;;;;;;;27.37;31.98;96336.38;10333920;28;97209;-75
2022/07/10 12:55:43;;;;;;;1.77;1.27;;;;;;;27.12;32.46;96343.06;10330762;28;96683;-76
2022/07/10 13:00:49;;;;;;;1.83;1.10;;;;;;;27.18;32.81;96340.44;10340690;28;96878;-75
2022/07/10 13:05:53;;;;;;;2.05;1.05;;;;;;;27.38;32.96;96340.66;10340896;28;97377;-75
2022/07/10 13:10:58;;;;;;;1.63;1.02;;;;;;;27.63;32.65;96329.41;10340702;28;96780;-75
2022/07/10 13:16:01;;;;;;;1.83;1.00;;;;;;;27.97;31.74;96333.72;10339905;28;97308;-75
2022/07/10 13:21:05;;;;;;;1.47;1.20;;;;;;;28.11;31.77;96324.16;10333402;28;97093;-74
2022/07/10 13:26:09;;;;;;;1.40;0.88;;;;;;;28.35;31.02;96330.00;10329975;28;97127;-76
2022/07/10 13:31:12;;;;;;;1.38;0.90;;;;;;;28.36;31.19;96328.09;10335260;28;97056;-75
2022/07/10 13:36:17;;;;;;;1.48;1.00;;;;;;;28.66;30.61;96324.00;10337262;28;96952;-75
2022/07/10 13:41:20;;;;;;;1.60;1.20;;;;;;;28.71;31.13;96324.84;10337310;28;97777;-75
2022/07/10 13:46:22;;;;;;;2.30;1.00;;;;;;;28.94;30.45;96314.75;10336338;28;97138;-76
2022/07/10 13:51:27;;;;;;;1.55;0.98;;;;;;;29.33;29.87;96307.06;10336775;28;96974;-75
2022/07/10 13:56:30;;;;;;;2.38;1.00;;;;;;;29.70;29.33;96308.75;10337620;28;97216;-75
2022/07/10 14:01:33;;;;;;;1.15;0.98;;;;;;;29.89;30.00;96310.94;10337775;28;96817;-74
2022/07/10 14:06:37;;;;;;;1.50;1.00;;;;;;;30.45;29.33;96305.50;10333829;28;97176;-75
2022/07/10 14:11:40;;;;;;;5.25;1.08;;;;;;;31.70;28.01;96304.69;10337219;28;96807;-74
2022/07/10 14:16:44;;;;;;;1.60;0.80;;;;;;;33.59;25.99;96286.69;10336729;28;96813;-74
2022/07/10 14:21:48;;;;;;;0.98;0.70;;;;;;;35.70;23.36;96297.91;10337583;28;97169;-73
2022/07/10 14:26:52;;;;;;;1.20;0.80;;;;;;;36.80;22.48;96306.53;10337172;28;96917;-74
2022/07/10 14:31:56;;;;;;;1.08;0.88;;;;;;;37.54;21.80;96294.03;10337187;28;97087;-73
2022/07/10 14:37:00;;;;;;;2.15;0.90;;;;;;;38.35;20.73;96297.16;10337446;28;96887;-74
2022/07/10 14:42:04;;;;;;;0.95;0.80;;;;;;;38.04;20.86;96281.03;10337784;28;96822;-73
2022/07/10 14:47:07;;;;;;;0.85;0.70;;;;;;;37.60;21.20;96297.41;10338768;28;96855;-75
2022/07/10 14:52:13;;;;;;;1.33;0.80;;;;;;;37.56;21.16;96286.34;10336482;28;97509;-76
2022/07/10 14:57:16;;;;;;;1.55;0.90;;;;;;;37.89;20.94;96277.69;10337225;28;97553;-77
2022/07/10 15:02:19;;;;;;;2.45;0.90;;;;;;;38.20;20.59;96281.31;10342085;28;97165;-77
2022/07/10 15:07:23;;;;;;;1.48;0.90;;;;;;;38.65;20.37;96280.84;10332856;28;97124;-75
2022/07/10 15:12:26;;;;;;;0.75;0.68;;;;;;;38.29;20.62;96273.91;10331147;28;96973;-75
2022/07/10 15:17:29;;;;;;;2.00;0.93;;;;;;;37.37;21.26;96283.13;10328134;28;98712;-74
2022/07/10 15:22:33;;;;;;;0.85;0.80;;;;;;;37.18;21.21;96289.66;10333697;28;96907;-74
2022/07/10 15:27:36;;;;;;;1.48;0.82;;;;;;;37.73;21.04;96284.75;10328958;28;97232;-75
2022/07/10 15:32:39;;;;;;;3.83;0.80;;;;;;;37.29;21.25;96290.19;10329607;28;98616;-75
2022/07/10 15:37:45;;;;;;;1.98;1.00;;;;;;;37.55;21.28;96284.72;10328389;28;97368;-75
2022/07/10 15:42:48;;;;;;;1.70;1.05;;;;;;;38.09;20.80;96281.63;10334393;28;98060;-75
2022/07/10 15:47:51;;;;;;;1.38;0.93;;;;;;;38.26;21.34;96271.84;10321873;28;99203;-75
2022/07/10 15:52:55;;;;;;;14.90;13.70;;;;;;;38.28;20.65;96267.66;10333383;28;96924;-76
2022/07/10 15:57:58;;;;;;;3.10;1.15;;;;;;;38.70;20.44;96272.47;10327289;28;97885;-74
2022/07/10 16:03:01;;;;;;;2.22;1.08;;;;;;;39.06;20.20;96269.22;10331121;28;97172;-75
2022/07/10 16:08:06;;;;;;;1.42;1.00;;;;;;;39.06;20.06;96266.50;10332906;28;98689;-77
2022/07/10 16:13:11;;;;;;;1.83;0.98;;;;;;;39.16;19.98;96264.50;10327255;28;97717;-75
2022/07/10 16:18:14;;;;;;;1.17;0.90;;;;;;;38.59;20.36;96260.31;10324049;28;99390;-75
2022/07/10 16:23:18;;;;;;;1.13;1.00;;;;;;;38.19;20.51;96260.66;10325078;28;98194;-75
2022/07/10 16:28:22;;;;;;;1.98;1.10;;;;;;;38.54;19.95;96252.31;10326834;28;97633;-75
2022/07/10 16:33:26;;;;;;;1.85;1.02;;;;;;;38.10;20.87;96255.16;10325188;28;97756;-76
2022/07/10 16:38:30;;;;;;;1.38;1.08;;;;;;;38.30;20.58;96240.84;10337986;28;97842;-76
2022/07/10 16:43:33;;;;;;;1.30;1.20;;;;;;;38.45;20.36;96227.81;10338274;28;96853;-76
2022/07/10 16:48:36;;;;;;;1.17;1.08;;;;;;;38.48;20.70;96238.03;10337271;28;98111;-77
2022/07/10 16:53:40;;;;;;;2.05;1.15;;;;;;;37.47;21.25;96235.69;10336587;28;96855;-76
2022/07/10 16:59:03;;;;;;;2.97;1.10;;;;;;;37.76;21.06;96226.88;10333454;28;97287;-76
2022/07/10 17:04:06;;;;;;;1.70;1.20;;;;;;;37.30;21.22;96233.75;10332006;28;98610;-74
2022/07/10 17:09:10;;;;;;;1.63;1.02;;;;;;;36.21;22.32;96238.75;10330278;28;97922;-75
2022/07/10 17:14:18;;;;;;;1.50;1.27;;;;;;;36.61;21.66;96237.94;10336814;28;96782;-78
2022/07/10 17:19:21;;;;;;;2.22;1.55;;;;;;;36.86;21.88;96241.06;10335598;28;97120;-72
2022/07/10 17:24:25;;;;;;;1.27;1.17;;;;;;;36.15;22.72;96236.44;10337437;28;97823;-71
2022/07/10 17:29:28;;;;;;;2.88;1.45;;;;;;;35.36;23.71;96233.22;10336709;28;96933;-71
2022/07/10 17:34:31;;;;;;;3.63;1.63;;;;;;;35.80;23.38;96231.63;10336781;28;96849;-69
2022/07/10 17:39:35;;;;;;;1.50;1.27;;;;;;;35.92;23.37;96241.94;10337503;28;96858;-72
2022/07/10 17:44:38;;;;;;;1.50;1.10;;;;;;;35.45;23.30;96239.50;10326939;28;97163;-76
2022/07/10 17:49:41;;;;;;;0.98;0.98;;;;;;;35.53;23.64;96235.25;10323901;28;97675;-71
2022/07/10 17:54:45;;;;;;;3.00;1.40;;;;;;;34.91;24.31;96239.34;10323885;28;98200;-72
2022/07/10 17:59:48;;;;;;;2.28;1.23;;;;;;;34.02;25.22;96237.78;10321836;28;97322;-72
2022/07/10 18:04:51;;;;;;;1.30;1.20;;;;;;;33.71;26.00;96232.06;10328046;28;98160;-74
2022/07/10 18:09:56;;;;;;;2.35;1.48;;;;;;;33.35;26.04;96240.75;10331824;28;97402;-72
2022/07/10 18:14:59;;;;;;;1.48;1.30;;;;;;;31.68;27.72;96243.94;10336568;28;96877;-75
2022/07/10 18:20:02;;;;;;;2.40;1.38;;;;;;;29.80;29.77;96235.25;10336211;28;97256;-76
2022/07/10 18:25:12;;;;;;;2.90;1.58;;;;;;;28.71;31.27;96246.09;10325849;28;97217;-75
2022/07/10 18:30:16;;;;;;;2.30;1.50;;;;;;;27.63;32.29;96248.06;10346497;28;98372;-76
2022/07/10 18:35:19;;;;;;;4.13;1.42;;;;;;;26.82;33.09;96251.53;10326620;28;97394;-74
2022/07/10 18:40:23;;;;;;;2.00;1.30;;;;;;;26.32;33.84;96250.66;10327650;28;98762;-75
2022/07/10 18:45:26;;;;;;;3.53;1.50;;;;;;;25.92;34.05;96263.19;10331854;28;97885;-74
2022/07/10 18:50:29;;;;;;;3.60;1.70;;;;;;;25.87;34.42;96260.44;10323993;28;97379;-67
2022/07/10 18:55:33;;;;;;;3.57;1.73;;;;;;;25.83;34.67;96269.22;10331305;28;97227;-65
2022/07/10 19:00:36;;;;;;;1.83;1.42;;;;;;;25.70;34.56;96270.31;10336580;28;96888;-66
2022/07/10 19:05:39;;;;;;;1.50;1.30;;;;;;;25.34;35.18;96272.34;10325551;28;98443;-66
2022/07/10 19:10:44;;;;;;;3.40;1.50;;;;;;;25.13;35.78;96266.66;10328351;28;97829;-66
2022/07/10 19:15:46;;;;;;;2.72;1.48;;;;;;;24.93;35.93;96272.44;10325737;28;98544;-66
2022/07/10 19:20:49;;;;;;;2.67;1.70;;;;;;;24.77;36.79;96275.84;10328477;28;97003;-66
2022/07/10 19:25:54;;;;;;;1.92;1.63;;;;;;;24.75;37.09;96285.91;10326326;28;98626;-66
2022/07/10 19:30:57;;;;;;;3.92;1.85;;;;;;;24.51;37.00;96280.66;10316012;28;98750;-66
2022/07/10 19:36:00;;;;;;;2.00;1.40;;;;;;;24.27;37.58;96293.22;10324763;28;96946;-66
2022/07/10 19:41:07;;;;;;;4.60;1.45;;;;;;;24.02;37.80;96304.91;10329799;28;97386;-66
2022/07/10 19:46:10;;;;;;;5.50;1.40;;;;;;;23.74;38.10;96298.38;10322246;28;97515;-67
2022/07/10 19:51:13;;;;;;;3.27;1.33;;;;;;;23.56;38.22;96315.25;10327410;28;98087;-66
2022/07/10 19:56:17;;;;;;;4.63;3.30;;;;;;;23.41;38.46;96316.72;10323697;28;98668;-67
2022/07/10 20:01:20;;;;;;;3.95;1.75;;;;;;;23.30;38.45;96313.78;10328554;28;98331;-68
2022/07/10 20:06:24;;;;;;;5.03;1.88;;;;;;;23.09;39.23;96327.59;10331133;28;96833;-68
2022/07/10 20:11:28;;;;;;;5.07;1.50;;;;;;;22.94;39.29;96331.47;10335906;28;98636;-66
2022/07/10 20:16:31;;;;;;;14.38;12.95;;;;;;;22.82;39.15;96335.88;10333555;28;97984;-66
2022/07/10 20:21:34;;;;;;;3.15;1.50;;;;;;;22.68;39.44;96337.06;10336032;28;98113;-67
2022/07/10 20:26:39;;;;;;;2.65;2.13;;;;;;;22.56;39.48;96340.50;10335015;28;97423;-67
2022/07/10 20:31:41;;;;;;;2.90;2.13;;;;;;;22.53;39.43;96346.25;10331123;28;98583;-67
2022/07/10 20:42:08;;;;;;;6.00;1.45;;;;;;;22.32;39.58;96350.13;10331701;28;97848;-67
2022/07/10 20:47:11;;;;;;;2.20;1.38;;;;;;;22.16;39.49;96346.16;10330120;28;98794;-66
2022/07/10 20:52:14;;;;;;;2.38;1.20;;;;;;;22.03;39.37;96346.28;10335487;28;97661;-66
2022/07/10 20:57:18;;;;;;;2.20;1.20;;;;;;;21.92;39.55;96357.59;10335084;28;97597;-66
2022/07/10 21:02:21;;;;;;;;;;;;;;;21.84;39.14;96348.88;10338018;28;97124;-66
2022/07/10 21:07:24;;;;;;;2.60;1.27;;;;;;;21.76;39.31;96366.94;10339075;28;97474;-66
2022/07/10 21:12:29;;;;;;;2.37;1.37;;;;;;;21.66;39.35;96364.75;10339123;28;97123;-66
2022/07/10 21:17:32;;;;;;;;;;;;;;;21.62;39.28;96360.88;10334526;28;98062;-66
2022/07/10 21:22:35;;;;;;;4.13;1.20;;;;;;;21.49;39.82;96362.56;10332140;28;97682;-66
2022/07/10 21:27:39;;;;;;;2.20;1.10;;;;;;;21.44;39.73;96365.06;10331201;28;97710;-66
2022/07/10 21:32:42;;;;;;;1.70;1.17;;;;;;;21.30;40.57;96372.28;10334759;28;97001;-66
2022/07/10 21:37:45;;;;;;;1.85;1.23;;;;;;;21.19;41.14;96366.81;10333296;28;98649;-66
2022/07/10 21:42:49;;;;;;;2.80;1.70;;;;;;;21.12;41.36;96372.97;10339174;28;96837;-66
2022/07/10 21:47:52;;;;;;;;;;;;;;;21.06;41.10;96379.13;10339009;28;97179;-67
2022/07/10 21:52:56;;;;;;;1.85;1.30;;;;;;;20.97;42.33;96383.06;10338065;28;96905;-67
2022/07/10 21:58:01;;;;;;;2.22;1.48;;;;;;;20.89;43.13;96383.28;10340774;28;96886;-67
2022/07/10 22:03:04;;;;;;;1.90;1.30;;;;;;;20.86;43.29;96391.66;10339787;28;96930;-67
2022/07/10 22:08:07;;;;;;;2.63;1.50;;;;;;;20.73;43.81;96385.31;10337319;28;96990;-67
2022/07/10 22:13:12;;;;;;;2.15;1.50;;;;;;;20.65;44.38;96398.84;10337671;28;96919;-67
2022/07/10 22:18:15;;;;;;;2.90;1.50;;;;;;;20.58;44.76;96387.41;10334307;28;99011;-67
2022/07/10 22:23:18;;;;;;;5.18;2.00;;;;;;;20.49;44.77;96393.94;10337717;28;99078;-67
2022/07/10 22:28:22;;;;;;;2.25;1.52;;;;;;;20.43;45.37;96400.09;10332489;28;96836;-67
2022/07/10 22:33:25;;;;;;;2.95;1.60;;;;;;;20.32;44.70;96398.88;10328244;28;96837;-67
2022/07/10 22:38:28;;;;;;;2.22;1.60;;;;;;;20.22;45.33;96388.69;10335139;28;98261;-67
2022/07/10 22:43:32;;;;;;;3.45;1.70;;;;;;;20.09;45.46;96386.03;10333445;28;97518;-66
2022/07/10 22:48:36;;;;;;;2.63;1.50;;;;;;;19.94;45.22;96387.03;10330689;28;96889;-67
2022/07/10 22:53:39;;;;;;;3.37;1.20;;;;;;;19.90;44.76;96385.81;10332724;28;96942;-67
2022/07/10 22:58:43;;;;;;;2.47;1.40;;;;;;;19.94;44.64;96380.91;10333112;28;96919;-67
2022/07/10 23:03:46;;;;;;;3.88;1.60;;;;;;;19.92;44.62;96378.50;10333062;28;98049;-67
2022/07/10 23:08:50;;;;;;;2.30;1.35;;;;;;;19.94;43.88;96381.75;10331768;28;98125;-67
2022/07/10 23:13:54;;;;;;;3.58;1.40;;;;;;;19.90;44.05;96385.81;10328803;28;97779;-66
2022/07/10 23:18:57;;;;;;;2.10;1.48;;;;;;;19.88;43.66;96387.03;10332722;28;98775;-66
2022/07/10 23:24:00;;;;;;;2.53;1.60;;;;;;;19.74;43.54;96381.69;10332345;28;97984;-67
2022/07/10 23:29:04;;;;;;;1.88;1.40;;;;;;;19.72;44.08;96391.69;10330306;28;97374;-67
2022/07/10 23:34:07;;;;;;;;;;;;;;;19.69;44.08;96389.41;10331057;28;97536;-66
2022/07/10 23:39:10;;;;;;;2.13;1.50;;;;;;;19.64;43.74;96391.84;10328400;28;97145;-67
2022/07/10 23:44:14;;;;;;;2.50;1.38;;;;;;;19.62;43.67;96394.69;10332633;28;97082;-67
2022/07/10 23:54:41;;;;;;;2.22;1.40;;;;;;;19.43;43.93;96383.03;10326668;28;96954;-66
2022/07/10 23:59:45;;;;;;;3.58;1.75;;;;;;;19.26;43.84;96392.38;10332576;28;96921;-67
